createdAt,value
2023-04-14T00:04:42.692Z,99593.84
2023-04-14T00:09:44.450Z,99594.52
2023-04-14T00:14:45.964Z,99595.17
2023-04-14T00:19:47.522Z,99592.37
2023-04-14T00:24:50.864Z,99595.05
2023-04-14T00:29:52.417Z,99592.84
2023-04-14T00:34:53.949Z,99589.50
2023-04-14T00:39:55.555Z,99588.98
2023-04-14T00:44:57.061Z,99584.46
2023-04-14T00:49:58.634Z,99582.75
2023-04-14T00:55:00.951Z,99583.33
2023-04-14T01:00:06.784Z,99580.48
2023-04-14T01:05:08.687Z,99579.08
2023-04-14T01:10:11.596Z,99580.21
2023-04-14T01:15:41.643Z,99579.34
2023-04-14T01:20:52.788Z,99582.44
2023-04-14T01:26:12.688Z,99586.17
2023-04-14T01:31:41.547Z,99587.95
2023-04-14T01:36:46.358Z,99592.46
2023-04-14T01:41:56.300Z,99590.75
2023-04-14T01:47:02.446Z,99592.39
2023-04-14T01:52:08.072Z,99592.98
2023-04-14T01:57:11.783Z,99596.58
2023-04-14T02:02:15.775Z,99598.36
2023-04-14T02:07:21.855Z,99602.52
2023-04-14T02:12:26.616Z,99603.52
2023-04-14T02:17:29.000Z,99600.81
2023-04-14T02:22:30.798Z,99594.12
2023-04-14T02:27:43.392Z,99592.28
2023-04-14T02:33:02.186Z,99592.52
2023-04-14T02:38:30.049Z,99596.19
2023-04-14T02:43:36.787Z,99597.96
2023-04-14T02:48:42.926Z,99592.39
2023-04-14T02:53:45.858Z,99589.72
2023-04-14T02:58:48.952Z,99588.05
2023-04-14T03:03:53.409Z,99587.94
2023-04-14T03:08:57.308Z,99592.97
2023-04-14T03:13:59.252Z,99593.72
2023-04-14T03:19:03.849Z,99591.23
2023-04-14T03:24:07.134Z,99591.30
2023-04-14T03:29:10.509Z,99597.69
2023-04-14T03:34:15.614Z,99600.81
2023-04-14T03:39:20.288Z,99603.04
2023-04-14T03:44:22.800Z,99606.47
2023-04-14T03:49:27.416Z,99603.91
2023-04-14T03:54:32.418Z,99607.14
2023-04-14T03:59:36.750Z,99609.05
2023-04-14T04:04:39.076Z,99608.20
2023-04-14T04:09:42.953Z,99606.33
2023-04-14T04:14:44.380Z,99613.70
2023-04-14T04:19:47.768Z,99620.54
2023-04-14T04:24:50.744Z,99621.19
2023-04-14T04:29:52.693Z,99630.70
2023-04-14T04:34:55.317Z,99628.38
2023-04-14T04:39:58.421Z,99637.30
2023-04-14T04:44:59.915Z,99639.20
2023-04-14T04:50:01.427Z,99638.24
2023-04-14T04:55:02.998Z,99641.41
2023-04-14T05:00:05.577Z,99638.30
2023-04-14T05:05:08.749Z,99638.33
2023-04-14T05:10:10.504Z,99634.70
2023-04-14T05:15:12.158Z,99639.41
2023-04-14T05:20:13.621Z,99641.40
2023-04-14T05:25:15.549Z,99643.11
2023-04-14T05:30:18.861Z,99646.42
2023-04-14T05:35:20.568Z,99649.85
2023-04-14T05:40:22.681Z,99656.60
2023-04-14T05:45:25.057Z,99655.46
2023-04-14T05:50:27.292Z,99654.48
2023-04-14T05:55:28.935Z,99652.90
2023-04-14T06:00:31.031Z,99652.55
2023-04-14T06:05:33.878Z,99656.78
2023-04-14T06:10:35.881Z,99658.09
2023-04-14T06:15:37.557Z,99664.09
2023-04-14T06:20:39.209Z,99663.00
2023-04-14T06:25:41.029Z,99665.84
2023-04-14T06:30:43.235Z,99672.30
2023-04-14T06:35:45.243Z,99665.44
2023-04-14T06:40:46.778Z,99665.29
2023-04-14T06:45:48.348Z,99664.06
2023-04-14T06:50:56.820Z,99660.27
2023-04-14T06:56:01.647Z,99658.28
2023-04-14T07:01:04.052Z,99661.45
2023-04-14T07:06:08.347Z,99655.39
2023-04-14T07:11:11.392Z,99647.70
2023-04-14T07:16:13.035Z,99642.77
2023-04-14T07:21:14.634Z,99644.96
2023-04-14T07:26:16.265Z,99646.64
2023-04-14T07:31:17.824Z,99651.80
2023-04-14T07:36:19.439Z,99655.40
2023-04-14T07:41:21.147Z,99663.45
2023-04-14T07:46:22.798Z,99661.27
2023-04-14T07:51:24.547Z,99656.63
2023-04-14T07:56:26.088Z,99659.83
2023-04-14T08:01:27.611Z,99663.70
2023-04-14T08:06:29.157Z,99660.29
2023-04-14T08:11:30.873Z,99663.52
2023-04-14T08:16:36.699Z,99658.82
2023-04-14T08:21:38.553Z,99657.10
2023-04-14T08:26:40.715Z,99655.20
2023-04-14T08:31:42.955Z,99650.59
2023-04-14T08:36:44.836Z,99648.39
2023-04-14T08:41:46.576Z,99647.56
2023-04-14T08:46:54.875Z,99642.04
2023-04-14T08:51:58.785Z,99636.95
2023-04-14T08:57:02.608Z,99637.02
2023-04-14T09:02:07.849Z,99631.01
2023-04-14T09:07:10.447Z,99630.65
2023-04-14T09:12:13.645Z,99627.11
2023-04-14T09:17:15.533Z,99627.13
2023-04-14T09:22:18.432Z,99630.79
2023-04-14T09:27:19.966Z,99625.34
2023-04-14T09:32:22.081Z,99620.36
2023-04-14T09:37:23.704Z,99616.80
2023-04-14T09:42:40.084Z,99614.33
2023-04-14T09:47:41.677Z,99606.23
2023-04-14T09:52:48.445Z,99601.16
2023-04-14T09:57:51.945Z,99600.19
2023-04-14T10:02:56.211Z,99599.19
2023-04-14T10:08:05.465Z,99597.59
2023-04-14T10:13:07.504Z,99601.02
2023-04-14T10:18:09.075Z,99602.98
2023-04-14T10:23:11.789Z,99605.44
2023-04-14T10:28:13.965Z,99599.09
2023-04-14T10:33:15.926Z,99603.86
2023-04-14T10:38:17.439Z,99604.76
2023-04-14T10:43:19.500Z,99599.50
2023-04-14T10:48:24.674Z,99599.59
2023-04-14T10:53:29.818Z,99597.39
2023-04-14T10:58:34.724Z,99594.65
2023-04-14T11:03:44.906Z,99592.50
2023-04-14T11:08:50.256Z,99590.45
2023-04-14T11:14:11.015Z,99585.79
2023-04-14T11:19:15.930Z,99580.75
2023-04-14T11:24:18.131Z,99572.61
2023-04-14T11:29:19.875Z,99569.65
2023-04-14T11:34:25.921Z,99570.58
2023-04-14T11:39:29.870Z,99566.11
2023-04-14T11:44:31.991Z,99561.14
2023-04-14T11:49:35.527Z,99563.76
2023-04-14T11:54:40.765Z,99560.41
2023-04-14T11:59:47.432Z,99556.75
2023-04-14T12:04:51.132Z,99549.15
2023-04-14T12:09:52.784Z,99541.70
2023-04-14T12:14:54.724Z,99540.63
2023-04-14T12:19:56.478Z,99536.19
2023-04-14T12:24:58.348Z,99530.67
2023-04-14T12:29:59.872Z,99529.79
2023-04-14T12:35:01.754Z,99518.76
2023-04-14T12:40:06.750Z,99510.91
2023-04-14T12:45:09.182Z,99506.24
2023-04-14T12:50:28.689Z,99508.02
2023-04-14T12:55:31.581Z,99502.87
2023-04-14T13:00:37.143Z,99503.69
2023-04-14T13:05:38.647Z,99497.61
2023-04-14T13:10:40.162Z,99493.56
2023-04-14T13:16:14.637Z,99498.73
2023-04-14T13:21:04.841Z,99497.34
2023-04-14T13:26:06.605Z,99495.89
2023-04-14T13:31:08.250Z,99495.80
2023-04-14T13:36:09.857Z,99502.89
2023-04-14T13:41:11.405Z,99501.42
2023-04-14T13:46:12.993Z,99492.67
2023-04-14T13:51:14.585Z,99492.12
2023-04-14T13:56:16.056Z,99493.13
2023-04-14T14:01:17.672Z,99491.60
2023-04-14T14:06:19.676Z,99488.65
2023-04-14T14:11:21.228Z,99487.53
2023-04-14T14:16:36.161Z,99480.95
2023-04-14T14:21:38.536Z,99475.34
2023-04-14T14:26:40.074Z,99474.92
2023-04-14T14:31:41.609Z,99484.94
2023-04-14T14:36:43.690Z,99478.58
2023-04-14T14:41:45.448Z,99478.42
2023-04-14T14:46:47.331Z,99475.80
2023-04-14T14:51:48.992Z,99476.34
2023-04-14T14:56:50.449Z,99473.55
2023-04-14T15:01:52.025Z,99473.06
2023-04-14T15:06:53.559Z,99465.93
2023-04-14T15:11:55.084Z,99471.31
2023-04-14T15:16:56.762Z,99464.77
2023-04-14T15:21:58.503Z,99468.39
2023-04-14T15:27:00.005Z,99473.35
2023-04-14T15:32:01.561Z,99476.60
2023-04-14T15:37:03.321Z,99479.95
2023-04-14T15:42:04.945Z,99484.60
2023-04-14T15:47:06.413Z,99484.30
2023-04-14T15:52:07.898Z,99493.11
2023-04-14T15:57:09.403Z,99500.48
2023-04-14T16:02:11.027Z,99496.59
2023-04-14T16:07:12.752Z,99507.27
2023-04-14T16:12:14.261Z,99498.91
2023-04-14T16:17:15.739Z,99498.55
2023-04-14T16:22:17.562Z,99497.86
2023-04-14T16:27:20.319Z,99503.85
2023-04-14T16:32:22.152Z,99499.40
2023-04-14T16:37:25.962Z,99509.39
2023-04-14T16:42:27.523Z,99515.02
2023-04-14T16:47:29.361Z,99520.36
2023-04-14T16:52:31.111Z,99521.89
2023-04-14T16:57:32.683Z,99524.60
2023-04-14T17:02:35.477Z,99526.82
2023-04-14T17:07:38.746Z,99536.46
2023-04-14T17:12:42.484Z,99545.46
2023-04-14T17:17:46.284Z,99548.08
2023-04-14T17:22:48.249Z,99551.45
2023-04-14T17:27:49.953Z,99554.20
2023-04-14T17:32:52.068Z,99556.23
2023-04-14T17:37:53.674Z,99568.40
2023-04-14T17:42:56.376Z,99572.17
2023-04-14T17:47:58.306Z,99571.42
2023-04-14T17:53:00.011Z,99574.43
2023-04-14T17:58:01.698Z,99577.02
2023-04-14T18:03:04.249Z,99582.41
2023-04-14T18:08:06.269Z,99590.62
2023-04-14T18:13:07.894Z,99596.07
2023-04-14T18:18:10.282Z,99594.63
2023-04-14T18:23:12.864Z,99601.34
2023-04-14T18:28:14.346Z,99606.45
2023-04-14T18:33:15.891Z,99611.23
2023-04-14T18:38:18.369Z,99620.80
2023-04-14T18:43:19.965Z,99626.45
2023-04-14T18:48:21.434Z,99632.51
2023-04-14T18:53:23.154Z,99636.70
2023-04-14T18:58:25.256Z,99642.71
2023-04-14T19:03:27.260Z,99642.67
2023-04-14T19:08:28.966Z,99644.14
2023-04-14T19:13:30.528Z,99640.91
2023-04-14T19:18:32.747Z,99645.73
2023-04-14T19:23:35.282Z,99634.73
2023-04-14T19:28:39.874Z,99636.60
2023-04-14T19:33:41.890Z,99632.45
2023-04-14T19:38:44.173Z,99632.24
2023-04-14T19:43:46.216Z,99630.55
2023-04-14T19:48:47.719Z,99631.16
2023-04-14T19:53:49.268Z,99631.70
2023-04-14T19:58:51.779Z,99633.66
2023-04-14T20:04:05.730Z,99633.21
2023-04-14T20:09:14.447Z,99633.09
2023-04-14T20:14:16.222Z,99630.16
2023-04-14T20:19:17.750Z,99628.33
2023-04-14T20:24:20.058Z,99623.59
2023-04-14T20:29:23.334Z,99615.30
2023-04-14T20:34:25.049Z,99614.35
2023-04-14T20:39:26.550Z,99612.61
2023-04-14T20:44:28.013Z,99609.50
2023-04-14T20:49:29.567Z,99604.66
2023-04-14T20:54:31.850Z,99601.64
2023-04-14T20:59:33.487Z,99603.98
2023-04-14T21:04:35.989Z,99604.39
2023-04-14T21:09:37.496Z,99609.19
2023-04-14T21:15:30.321Z,99609.74
2023-04-14T21:20:07.022Z,99621.81
2023-04-14T21:25:08.910Z,99615.48
2023-04-14T21:30:10.877Z,99609.63
2023-04-14T21:35:12.416Z,99611.34
2023-04-14T21:40:14.211Z,99610.70
2023-04-14T21:45:15.828Z,99601.05
2023-04-14T21:50:18.457Z,99612.48
2023-04-14T21:55:19.931Z,99606.30
2023-04-14T22:00:28.928Z,99604.07
2023-04-14T22:05:30.400Z,99603.08
2023-04-14T22:10:32.411Z,99601.91
2023-04-14T22:15:34.026Z,99602.13
2023-04-14T22:20:35.503Z,99604.73
2023-04-14T22:25:37.840Z,99609.75
2023-04-14T22:30:39.524Z,99605.64
2023-04-14T22:35:41.628Z,99604.31
2023-04-14T22:40:43.463Z,99598.14
2023-04-14T22:45:45.081Z,99595.73
2023-04-14T22:50:47.100Z,99599.89
2023-04-14T22:55:48.672Z,99595.09
2023-04-14T23:00:50.180Z,99603.38
2023-04-14T23:05:52.738Z,99602.86
2023-04-14T23:10:54.267Z,99608.46
2023-04-14T23:15:55.839Z,99605.22
2023-04-14T23:20:57.437Z,99599.59
2023-04-14T23:25:58.962Z,99597.45
2023-04-14T23:31:00.900Z,99598.04
2023-04-14T23:36:02.548Z,99602.58
2023-04-14T23:41:04.937Z,99607.09
2023-04-14T23:46:06.493Z,99607.61
2023-04-14T23:51:17.987Z,99607.27
2023-04-14T23:56:22.357Z,99604.16
